createdAt,value
2022-11-23T00:00:59.303Z,7.40
2022-11-23T00:03:27.117Z,7.40
2022-11-23T00:05:54.954Z,7.40
2022-11-23T00:08:22.948Z,7.40
2022-11-23T00:10:50.850Z,7.40
2022-11-23T00:13:20.573Z,7.30
2022-11-23T00:15:48.798Z,7.20
2022-11-23T00:18:17.075Z,7.10
2022-11-23T00:20:44.882Z,7.00
2022-11-23T00:23:12.777Z,6.80
2022-11-23T00:25:40.838Z,6.80
2022-11-23T00:28:08.871Z,6.70
2022-11-23T00:30:38.063Z,6.60
2022-11-23T00:33:06.521Z,6.70
2022-11-23T00:35:35.911Z,6.70
2022-11-23T00:38:03.932Z,6.80
2022-11-23T00:40:31.836Z,6.90
2022-11-23T00:42:59.716Z,7.00
2022-11-23T00:45:27.508Z,7.00
2022-11-23T00:47:56.697Z,7.10
2022-11-23T00:50:24.591Z,7.10
2022-11-23T00:52:52.507Z,7.20
2022-11-23T00:55:20.840Z,7.20
2022-11-23T00:57:48.853Z,7.30
2022-11-23T01:00:17.545Z,7.30
2022-11-23T01:02:45.402Z,7.30
2022-11-23T01:05:14.701Z,7.40
2022-11-23T01:07:42.717Z,7.40
2022-11-23T01:10:10.798Z,7.40
2022-11-23T01:12:38.622Z,7.40
2022-11-23T01:15:08.337Z,7.40
2022-11-23T01:17:36.143Z,7.40
2022-11-23T01:20:04.332Z,7.40
2022-11-23T01:22:33.720Z,7.50
2022-11-23T01:25:01.717Z,7.50
2022-11-23T01:27:30.707Z,7.50
2022-11-23T01:30:00.087Z,7.60
2022-11-23T01:32:28.098Z,7.60
2022-11-23T01:34:58.412Z,7.60
2022-11-23T01:37:26.246Z,7.70
2022-11-23T01:39:55.526Z,7.70
2022-11-23T01:42:23.397Z,7.70
2022-11-23T01:44:51.855Z,7.70
2022-11-23T01:47:19.685Z,7.70
2022-11-23T01:49:50.232Z,7.70
2022-11-23T01:52:19.349Z,7.80
2022-11-23T01:54:49.087Z,7.80
2022-11-23T01:57:20.388Z,7.80
2022-11-23T01:59:48.753Z,7.80
2022-11-23T02:02:16.929Z,7.80
2022-11-23T02:04:46.022Z,7.80
2022-11-23T02:07:16.052Z,7.80
2022-11-23T02:09:45.996Z,7.80
2022-11-23T02:12:14.087Z,7.80
2022-11-23T02:14:45.464Z,7.80
2022-11-23T02:17:13.727Z,7.80
2022-11-23T02:19:47.644Z,7.80
2022-11-23T02:22:21.218Z,7.80
2022-11-23T02:24:50.639Z,7.70
2022-11-23T02:27:20.646Z,7.70
2022-11-23T02:29:52.844Z,7.70
2022-11-23T02:32:23.161Z,7.70
2022-11-23T02:34:51.307Z,7.60
2022-11-23T02:37:20.348Z,7.60
2022-11-23T02:39:49.465Z,7.60
2022-11-23T02:42:17.367Z,7.60
2022-11-23T02:44:49.380Z,7.60
2022-11-23T02:47:17.432Z,7.50
2022-11-23T02:49:47.126Z,7.50
2022-11-23T02:52:15.343Z,7.40
2022-11-23T02:54:43.335Z,7.50
2022-11-23T02:57:11.430Z,7.40
2022-11-23T02:59:40.902Z,7.40
2022-11-23T03:02:10.181Z,7.40
2022-11-23T03:04:38.511Z,7.30
2022-11-23T03:07:06.537Z,7.30
2022-11-23T03:09:34.926Z,7.30
2022-11-23T03:12:03.551Z,7.30
2022-11-23T03:14:31.457Z,7.30
2022-11-23T03:16:59.591Z,7.30
2022-11-23T03:19:32.689Z,7.40
2022-11-23T03:22:00.888Z,7.30
2022-11-23T03:24:32.275Z,7.40
2022-11-23T03:27:02.528Z,7.40
2022-11-23T03:29:30.770Z,7.50
2022-11-23T03:32:01.438Z,7.50
2022-11-23T03:34:29.611Z,7.40
2022-11-23T03:36:59.007Z,7.40
2022-11-23T03:39:26.997Z,7.40
2022-11-23T03:42:15.154Z,7.50
2022-11-23T03:44:43.337Z,7.40
2022-11-23T03:47:12.052Z,7.50
2022-11-23T03:49:40.078Z,7.40
2022-11-23T03:52:10.768Z,7.40
2022-11-23T03:54:38.853Z,7.50
2022-11-23T03:57:07.036Z,7.50
2022-11-23T03:59:35.557Z,7.50
2022-11-23T04:02:03.451Z,7.40
2022-11-23T04:04:35.787Z,7.40
2022-11-23T04:07:12.348Z,7.30
2022-11-23T04:09:45.943Z,7.30
2022-11-23T04:12:52.420Z,7.30
2022-11-23T04:15:20.952Z,7.30
2022-11-23T04:17:48.855Z,7.20
2022-11-23T04:20:16.722Z,7.20
2022-11-23T04:22:46.121Z,7.20
2022-11-23T04:25:14.628Z,7.10
2022-11-23T04:27:42.605Z,7.10
2022-11-23T04:30:10.971Z,7.10
2022-11-23T04:32:38.846Z,7.10
2022-11-23T04:35:07.076Z,7.10
2022-11-23T04:37:36.156Z,7.10
2022-11-23T04:40:05.974Z,7.20
2022-11-23T04:43:00.487Z,7.20
2022-11-23T04:45:32.661Z,7.20
2022-11-23T04:48:05.702Z,7.20
2022-11-23T04:50:40.484Z,7.20
2022-11-23T04:53:09.936Z,7.20
2022-11-23T04:55:44.777Z,7.20
2022-11-23T04:58:12.772Z,7.20
2022-11-23T05:00:41.131Z,7.20
2022-11-23T05:03:10.405Z,7.20
2022-11-23T05:05:41.331Z,7.20
2022-11-23T05:08:10.088Z,7.20
2022-11-23T05:10:51.745Z,7.20
2022-11-23T05:13:20.398Z,7.20
2022-11-23T05:15:49.637Z,7.10
2022-11-23T05:18:22.479Z,7.10
2022-11-23T05:20:51.616Z,7.00
2022-11-23T05:23:19.504Z,7.00
2022-11-23T05:25:47.907Z,7.00
2022-11-23T05:31:12.899Z,7.00
2022-11-23T05:33:41.016Z,7.00
2022-11-23T05:36:13.713Z,7.10
2022-11-23T05:38:42.912Z,7.10
2022-11-23T05:41:16.300Z,7.10
2022-11-23T05:43:47.031Z,7.10
2022-11-23T05:46:20.402Z,7.10
2022-11-23T05:48:48.550Z,7.10
2022-11-23T05:51:16.676Z,7.10
2022-11-23T05:53:46.188Z,7.10
2022-11-23T05:56:23.618Z,7.10
2022-11-23T05:59:05.270Z,7.10
2022-11-23T06:01:35.172Z,7.10
2022-11-23T06:04:06.771Z,7.10
2022-11-23T06:06:40.385Z,7.10
2022-11-23T06:09:08.288Z,7.20
2022-11-23T06:11:38.251Z,7.20
2022-11-23T06:14:14.459Z,7.20
2022-11-23T06:16:45.375Z,7.20
2022-11-23T06:19:23.044Z,7.20
2022-11-23T06:21:52.237Z,7.20
2022-11-23T06:24:22.706Z,7.20
2022-11-23T06:27:02.782Z,7.20
2022-11-23T06:29:32.269Z,7.20
2022-11-23T06:32:00.348Z,7.20
2022-11-23T06:34:29.265Z,7.20
2022-11-23T06:36:57.672Z,7.20
2022-11-23T06:39:25.681Z,7.20
2022-11-23T06:41:57.069Z,7.20
2022-11-23T06:44:35.916Z,7.20
2022-11-23T06:47:03.948Z,7.20
2022-11-23T06:49:32.052Z,7.30
2022-11-23T06:52:16.877Z,7.30
2022-11-23T06:54:49.676Z,7.40
2022-11-23T06:57:17.707Z,7.50
2022-11-23T06:59:46.928Z,7.50
2022-11-23T07:02:16.376Z,7.50
2022-11-23T07:04:44.159Z,7.50
2022-11-23T07:07:17.559Z,7.50
2022-11-23T07:09:55.493Z,7.60
2022-11-23T07:12:32.385Z,7.50
2022-11-23T07:15:03.360Z,7.50
2022-11-23T07:17:39.649Z,7.50
2022-11-23T07:20:08.586Z,7.50
2022-11-23T07:22:36.685Z,7.50
2022-11-23T07:25:04.678Z,7.50
2022-11-23T07:27:33.051Z,7.50
2022-11-23T07:30:04.523Z,7.50
2022-11-23T07:32:32.465Z,7.60
2022-11-23T07:35:00.284Z,7.80
2022-11-23T07:37:29.736Z,7.80
2022-11-23T07:39:58.531Z,7.80
2022-11-23T07:42:34.524Z,7.80
2022-11-23T07:45:05.748Z,7.80
2022-11-23T07:47:33.694Z,7.80
2022-11-23T07:50:02.367Z,7.80
2022-11-23T07:52:30.211Z,7.90
2022-11-23T07:54:58.050Z,7.90
2022-11-23T07:57:25.879Z,7.90
2022-11-23T07:59:53.816Z,7.90
2022-11-23T08:02:23.206Z,8.00
2022-11-23T08:04:52.669Z,8.00
2022-11-23T08:07:20.630Z,8.10
2022-11-23T08:09:48.478Z,8.10
2022-11-23T08:12:16.412Z,8.20
2022-11-23T08:14:44.332Z,8.20
2022-11-23T08:17:12.530Z,8.30
2022-11-23T08:19:41.741Z,8.30
2022-11-23T08:22:12.367Z,8.30
2022-11-23T08:24:43.396Z,8.40
2022-11-23T08:27:11.297Z,8.50
2022-11-23T08:29:39.169Z,8.60
2022-11-23T08:32:07.036Z,8.70
2022-11-23T08:34:35.167Z,9.40
2022-11-23T08:37:04.456Z,10.10
2022-11-23T08:39:32.296Z,10.80
2022-11-23T08:42:00.435Z,11.20
2022-11-23T08:44:28.518Z,11.40
2022-11-23T08:46:56.744Z,11.60
2022-11-23T08:49:24.703Z,11.70
2022-11-23T08:51:52.646Z,11.90
2022-11-23T08:54:23.331Z,11.90
2022-11-23T08:56:51.598Z,12.00
2022-11-23T08:59:20.351Z,12.10
2022-11-23T09:01:48.356Z,12.20
2022-11-23T09:04:20.466Z,12.00
2022-11-23T09:06:48.759Z,11.90
2022-11-23T09:09:16.649Z,11.90
2022-11-23T09:11:46.220Z,12.00
2022-11-23T09:14:14.223Z,12.20
2022-11-23T09:16:42.113Z,12.30
2022-11-23T09:19:12.165Z,12.30
2022-11-23T09:21:42.316Z,12.40
2022-11-23T09:24:11.331Z,12.30
2022-11-23T09:26:39.288Z,12.40
2022-11-23T09:29:09.034Z,12.30
2022-11-23T09:31:37.270Z,12.20
2022-11-23T09:34:05.248Z,12.50
2022-11-23T09:36:33.089Z,12.90
2022-11-23T09:39:03.219Z,12.90
2022-11-23T09:42:00.371Z,13.30
2022-11-23T09:44:36.313Z,14.00
2022-11-23T09:47:12.418Z,14.50
2022-11-23T09:49:44.131Z,14.50
2022-11-23T09:52:16.693Z,14.30
2022-11-23T09:54:45.563Z,14.10
2022-11-23T09:57:15.644Z,13.80
2022-11-23T09:59:47.148Z,13.80
2022-11-23T10:02:19.855Z,13.50
2022-11-23T10:04:47.738Z,13.40
2022-11-23T10:07:23.659Z,13.50
2022-11-23T10:09:55.555Z,13.80
2022-11-23T10:12:38.617Z,13.90
2022-11-23T10:15:15.052Z,14.00
2022-11-23T10:17:51.104Z,13.80
2022-11-23T10:20:30.113Z,13.80
2022-11-23T10:22:58.956Z,14.00
2022-11-23T10:25:28.857Z,14.20
2022-11-23T10:27:59.610Z,14.30
2022-11-23T10:30:29.041Z,14.60
2022-11-23T10:33:00.562Z,14.90
2022-11-23T10:35:29.833Z,14.50
2022-11-23T10:38:16.803Z,14.50
2022-11-23T10:40:47.972Z,14.90
2022-11-23T10:43:17.808Z,15.20
2022-11-23T10:45:48.425Z,15.50
2022-11-23T10:48:34.146Z,15.80
2022-11-23T10:51:16.539Z,15.90
2022-11-23T10:53:45.189Z,16.40
2022-11-23T10:56:13.806Z,16.20
2022-11-23T10:58:43.666Z,15.90
2022-11-23T11:01:15.616Z,15.80
2022-11-23T11:03:43.800Z,16.00
2022-11-23T11:06:12.071Z,16.20
2022-11-23T11:08:52.448Z,16.40
2022-11-23T11:11:25.223Z,16.50
2022-11-23T11:14:01.807Z,16.50
2022-11-23T11:16:31.882Z,16.80
2022-11-23T11:19:00.222Z,16.90
2022-11-23T11:21:32.115Z,16.90
2022-11-23T11:24:01.388Z,17.00
2022-11-23T11:26:30.250Z,17.60
2022-11-23T11:28:59.023Z,18.20
2022-11-23T11:31:51.998Z,18.20
2022-11-23T11:34:31.248Z,18.00
2022-11-23T11:37:03.075Z,17.90
2022-11-23T11:39:33.730Z,17.40
2022-11-23T11:42:03.673Z,17.10
2022-11-23T11:44:33.628Z,17.20
2022-11-23T11:47:08.080Z,17.10
2022-11-23T11:49:41.281Z,16.90
2022-11-23T11:52:11.545Z,16.50
2022-11-23T11:54:43.600Z,16.40
2022-11-23T11:57:17.329Z,16.30
2022-11-23T11:59:46.462Z,16.10
2022-11-23T12:02:19.692Z,16.20
2022-11-23T12:04:51.711Z,16.30
2022-11-23T12:07:23.311Z,15.90
2022-11-23T12:09:54.078Z,15.80
2022-11-23T12:12:28.274Z,16.00
2022-11-23T12:14:57.854Z,16.10
2022-11-23T12:17:38.540Z,15.90
2022-11-23T12:20:11.901Z,15.80
2022-11-23T12:22:45.707Z,15.70
2022-11-23T12:25:17.831Z,16.00
2022-11-23T12:27:50.552Z,16.40
2022-11-23T12:30:21.848Z,16.70
2022-11-23T12:32:56.735Z,16.90
2022-11-23T12:35:45.319Z,16.60
2022-11-23T12:38:20.593Z,16.60
2022-11-23T12:40:59.669Z,16.80
2022-11-23T12:43:36.383Z,16.80
2022-11-23T12:46:09.675Z,16.60
2022-11-23T12:48:48.899Z,16.30
2022-11-23T12:51:26.449Z,16.20
2022-11-23T12:53:58.572Z,16.20
2022-11-23T12:56:42.369Z,16.10
2022-11-23T12:59:11.793Z,15.80
2022-11-23T13:01:40.994Z,15.40
2022-11-23T13:04:25.788Z,15.30
2022-11-23T13:07:27.693Z,15.30
2022-11-23T13:09:58.408Z,15.10
2022-11-23T13:12:34.272Z,14.90
2022-11-23T13:15:11.550Z,14.80
2022-11-23T13:17:44.658Z,14.60
2022-11-23T13:20:27.668Z,14.70
2022-11-23T13:22:58.649Z,14.60
2022-11-23T13:25:27.579Z,14.40
2022-11-23T13:27:56.979Z,14.20
2022-11-23T13:30:35.563Z,13.90
2022-11-23T13:33:29.581Z,13.80
2022-11-23T13:36:08.765Z,13.60
2022-11-23T13:38:44.415Z,13.50
2022-11-23T13:41:33.142Z,13.50
2022-11-23T13:44:11.794Z,13.60
2022-11-23T13:46:39.878Z,13.60
2022-11-23T13:49:30.029Z,13.60
2022-11-23T13:52:05.805Z,13.70
2022-11-23T13:54:35.261Z,13.70
2022-11-23T13:57:05.975Z,13.70
2022-11-23T13:59:34.929Z,13.60
2022-11-23T14:02:23.151Z,13.60
2022-11-23T14:04:51.524Z,13.60
2022-11-23T14:07:23.487Z,13.50
2022-11-23T14:09:54.039Z,13.50
2022-11-23T14:12:25.304Z,13.50
2022-11-23T14:14:57.521Z,13.40
2022-11-23T14:17:31.123Z,13.40
2022-11-23T14:20:07.134Z,13.40
2022-11-23T14:22:38.883Z,13.50
2022-11-23T14:25:21.837Z,13.50
2022-11-23T14:27:58.582Z,13.50
2022-11-23T14:30:45.631Z,13.50
2022-11-23T14:33:30.434Z,13.60
2022-11-23T14:36:03.987Z,13.70
2022-11-23T14:38:53.004Z,13.70
2022-11-23T14:41:22.968Z,13.60
2022-11-23T14:43:52.268Z,13.20
2022-11-23T14:46:21.679Z,12.90
2022-11-23T14:48:51.112Z,12.70
2022-11-23T14:51:20.205Z,12.70
2022-11-23T14:53:49.587Z,12.60
2022-11-23T14:56:23.294Z,12.40
2022-11-23T14:58:52.569Z,12.10
2022-11-23T15:01:22.604Z,11.60
2022-11-23T15:03:57.559Z,11.10
2022-11-23T15:06:28.143Z,10.60
2022-11-23T15:09:01.071Z,10.20
2022-11-23T15:11:30.190Z,9.90
2022-11-23T15:14:03.269Z,9.70
2022-11-23T15:16:39.362Z,9.50
2022-11-23T15:19:17.877Z,9.30
2022-11-23T15:21:46.027Z,9.00
2022-11-23T15:24:21.742Z,8.90
2022-11-23T15:26:49.802Z,8.80
2022-11-23T15:29:33.306Z,8.70
2022-11-23T15:34:50.704Z,8.70
2022-11-23T15:37:18.749Z,8.60
2022-11-23T15:39:47.583Z,8.60
2022-11-23T15:42:17.765Z,8.60
2022-11-23T15:44:51.211Z,8.50
2022-11-23T15:47:27.385Z,8.50
2022-11-23T15:50:00.171Z,8.40
2022-11-23T15:52:29.163Z,8.30
2022-11-23T15:54:58.064Z,8.30
2022-11-23T15:57:28.249Z,8.30
2022-11-23T15:59:59.111Z,8.20
2022-11-23T16:02:29.316Z,8.20
2022-11-23T16:05:15.304Z,8.20
2022-11-23T16:07:53.767Z,8.20
2022-11-23T16:10:25.873Z,8.20
2022-11-23T16:12:55.125Z,8.20
2022-11-23T16:15:42.055Z,8.30
2022-11-23T16:18:22.907Z,8.30
2022-11-23T16:20:52.878Z,8.40
2022-11-23T16:23:22.104Z,8.50
2022-11-23T16:25:54.678Z,8.50
2022-11-23T16:28:25.835Z,8.60
2022-11-23T16:30:53.995Z,8.70
2022-11-23T16:33:23.409Z,8.70
2022-11-23T16:35:51.568Z,8.70
2022-11-23T16:38:19.896Z,8.80
2022-11-23T16:40:48.291Z,8.90
2022-11-23T16:43:17.103Z,9.00
2022-11-23T16:45:45.914Z,9.10
2022-11-23T16:48:31.622Z,9.20
2022-11-23T16:51:01.627Z,9.20
2022-11-23T16:53:47.275Z,9.20
2022-11-23T16:56:20.555Z,9.20
2022-11-23T16:58:48.473Z,9.10
2022-11-23T17:01:20.582Z,9.20
2022-11-23T17:03:48.828Z,9.30
2022-11-23T17:06:18.536Z,9.50
2022-11-23T17:08:46.674Z,9.60
2022-11-23T17:11:15.553Z,9.70
2022-11-23T17:13:44.540Z,9.70
2022-11-23T17:16:15.243Z,9.70
2022-11-23T17:18:43.432Z,9.70
2022-11-23T17:21:11.550Z,9.50
2022-11-23T17:23:42.804Z,9.40
2022-11-23T17:26:23.315Z,9.30
2022-11-23T17:28:51.662Z,9.20
2022-11-23T17:31:20.092Z,9.10
2022-11-23T17:33:48.452Z,9.00
2022-11-23T17:36:18.179Z,8.80
2022-11-23T17:38:49.492Z,8.70
2022-11-23T17:41:18.610Z,8.50
2022-11-23T17:43:46.657Z,8.30
2022-11-23T17:46:17.804Z,8.20
2022-11-23T17:48:46.333Z,8.20
2022-11-23T17:51:14.493Z,8.10
2022-11-23T17:53:42.800Z,7.90
2022-11-23T17:56:16.943Z,7.90
2022-11-23T17:58:45.169Z,7.80
2022-11-23T18:01:14.378Z,7.80
2022-11-23T18:03:42.703Z,7.80
2022-11-23T18:06:14.142Z,7.70
2022-11-23T18:08:43.203Z,7.70
2022-11-23T18:11:11.664Z,7.70
2022-11-23T18:13:41.063Z,7.70
2022-11-23T18:16:09.542Z,7.60
2022-11-23T18:18:38.314Z,7.60
2022-11-23T18:21:07.413Z,7.60
2022-11-23T18:23:35.764Z,7.70
2022-11-23T18:26:05.641Z,7.70
2022-11-23T18:28:34.214Z,7.70
2022-11-23T18:31:09.538Z,7.70
2022-11-23T18:33:38.183Z,7.80
2022-11-23T18:36:07.008Z,7.80
2022-11-23T18:38:35.430Z,7.70
2022-11-23T18:41:03.865Z,7.70
2022-11-23T18:43:32.323Z,7.70
2022-11-23T18:46:00.829Z,7.80
2022-11-23T18:48:30.776Z,7.80
2022-11-23T18:50:59.255Z,7.90
2022-11-23T18:53:27.813Z,7.90
2022-11-23T18:56:00.253Z,7.90
2022-11-23T18:58:32.913Z,7.80
2022-11-23T19:01:07.866Z,7.80
2022-11-23T19:03:41.013Z,7.80
2022-11-23T19:06:11.992Z,7.80
2022-11-23T19:08:40.548Z,7.80
2022-11-23T19:11:09.477Z,7.70
2022-11-23T19:13:37.941Z,7.70
2022-11-23T19:16:10.136Z,7.70
2022-11-23T19:18:38.181Z,7.70
2022-11-23T19:21:17.529Z,7.70
2022-11-23T19:23:46.220Z,7.80
2022-11-23T19:26:14.231Z,7.80
2022-11-23T19:28:44.956Z,7.70
2022-11-23T19:31:14.057Z,7.80
2022-11-23T19:33:42.487Z,7.80
2022-11-23T19:36:11.726Z,7.80
2022-11-23T19:38:41.947Z,7.80
2022-11-23T19:41:10.396Z,7.80
2022-11-23T19:43:38.796Z,7.80
2022-11-23T19:46:07.985Z,7.80
2022-11-23T19:48:36.082Z,7.70
2022-11-23T19:51:05.254Z,7.70
2022-11-23T19:53:34.420Z,7.60
2022-11-23T19:56:04.751Z,7.50
2022-11-23T19:58:33.645Z,7.50
2022-11-23T20:01:04.103Z,7.50
2022-11-23T20:03:32.504Z,7.50
2022-11-23T20:06:01.231Z,7.60
2022-11-23T20:08:29.476Z,7.60
2022-11-23T20:10:57.789Z,7.60
2022-11-23T20:13:27.339Z,7.60
2022-11-23T20:15:55.487Z,7.50
2022-11-23T20:18:26.988Z,7.50
2022-11-23T20:20:57.702Z,7.50
2022-11-23T20:23:25.621Z,7.50
2022-11-23T20:25:56.280Z,7.50
2022-11-23T20:28:24.525Z,7.50
2022-11-23T20:30:54.050Z,7.50
2022-11-23T20:33:22.406Z,7.50
2022-11-23T20:35:50.734Z,7.50
2022-11-23T20:38:18.690Z,7.40
2022-11-23T20:40:46.683Z,7.30
2022-11-23T20:43:14.684Z,7.30
2022-11-23T20:45:44.671Z,7.20
2022-11-23T20:48:14.135Z,7.20
2022-11-23T20:50:42.214Z,7.10
2022-11-23T20:53:10.334Z,7.10
2022-11-23T20:55:38.305Z,7.20
2022-11-23T20:58:06.787Z,7.20
2022-11-23T21:00:34.892Z,7.30
2022-11-23T21:03:03.151Z,7.30
2022-11-23T21:05:32.501Z,7.10
2022-11-23T21:08:01.361Z,7.10
2022-11-23T21:10:46.917Z,7.00
2022-11-23T21:13:48.511Z,7.00
2022-11-23T21:16:17.413Z,6.90
2022-11-23T21:18:45.525Z,6.90
2022-11-23T21:21:15.003Z,6.90
2022-11-23T21:23:43.946Z,6.90
2022-11-23T21:26:14.034Z,6.80
2022-11-23T21:28:43.323Z,6.80
2022-11-23T21:31:15.243Z,6.70
2022-11-23T21:33:43.998Z,6.60
2022-11-23T21:36:12.933Z,6.60
2022-11-23T21:38:42.326Z,6.60
2022-11-23T21:41:12.541Z,6.50
2022-11-23T21:43:51.386Z,6.50
2022-11-23T21:46:21.376Z,6.70
2022-11-23T21:48:49.429Z,6.80
2022-11-23T21:51:17.774Z,6.90
2022-11-23T21:53:47.638Z,7.00
2022-11-23T21:56:16.697Z,6.90
2022-11-23T21:58:44.989Z,6.80
2022-11-23T22:01:14.042Z,6.70
2022-11-23T22:03:42.538Z,6.70
2022-11-23T22:06:17.182Z,6.60
2022-11-23T22:08:50.522Z,6.50
2022-11-23T22:11:19.813Z,6.50
2022-11-23T22:13:47.841Z,6.60
2022-11-23T22:16:16.951Z,6.70
2022-11-23T22:18:45.402Z,6.80
2022-11-23T22:21:13.690Z,6.80
2022-11-23T22:23:42.156Z,6.80
2022-11-23T22:26:12.270Z,6.90
2022-11-23T22:28:41.301Z,7.00
2022-11-23T22:31:11.317Z,7.00
2022-11-23T22:33:39.475Z,7.00
2022-11-23T22:36:08.228Z,7.00
2022-11-23T22:38:36.207Z,7.10
2022-11-23T22:41:05.387Z,7.10
2022-11-23T22:43:34.854Z,7.10
2022-11-23T22:46:05.777Z,7.20
2022-11-23T22:48:36.467Z,7.20
2022-11-23T22:51:04.582Z,7.20
2022-11-23T22:53:33.111Z,7.20
2022-11-23T22:56:02.074Z,7.30
2022-11-23T22:58:30.069Z,7.20
2022-11-23T23:01:05.517Z,7.20
2022-11-23T23:03:33.795Z,7.20
2022-11-23T23:06:02.216Z,7.30
2022-11-23T23:08:30.679Z,7.30
2022-11-23T23:11:03.781Z,7.30
2022-11-23T23:13:40.422Z,7.20
2022-11-23T23:16:11.865Z,7.20
2022-11-23T23:18:40.129Z,7.10
2022-11-23T23:21:10.740Z,7.10
2022-11-23T23:23:39.021Z,7.10
2022-11-23T23:26:07.312Z,7.00
2022-11-23T23:28:35.281Z,7.00
2022-11-23T23:31:04.014Z,7.00
2022-11-23T23:33:33.701Z,6.90
2022-11-23T23:36:03.852Z,6.80
2022-11-23T23:38:32.174Z,6.80
2022-11-23T23:41:00.363Z,6.80
2022-11-23T23:43:28.919Z,6.80
2022-11-23T23:45:58.844Z,6.80
2022-11-23T23:48:29.007Z,6.80
2022-11-23T23:50:58.211Z,6.70
2022-11-23T23:53:26.286Z,6.70
2022-11-23T23:55:57.743Z,6.60
2022-11-23T23:58:36.863Z,6.70
